sensor_id;sensor_type;location;lat;lon;timestamp;noise_LAeq;noise_LA_min;noise_LA_max;noise_LA01;noise_LA95
66458;Laerm;56835;52.198;4.826;2023-04-30T00:00:05;54.31;52.64;55.71;;
66458;Laerm;56835;52.198;4.826;2023-04-30T00:00:19;54.34;52.13;55.64;;
66458;Laerm;56835;52.198;4.826;2023-04-30T00:00:29;54.21;52.39;55.40;;
66458;Laerm;56835;52.198;4.826;2023-04-30T00:00:40;54.28;52.64;55.81;;
66458;Laerm;56835;52.198;4.826;2023-04-30T00:00:50;54.30;52.67;55.47;;
66458;Laerm;56835;52.198;4.826;2023-04-30T00:01:00;54.30;52.53;55.48;;
66458;Laerm;56835;52.198;4.826;2023-04-30T00:01:10;54.29;52.59;55.76;;
66458;Laerm;56835;52.198;4.826;2023-04-30T00:01:21;54.20;52.51;55.61;;
66458;Laerm;56835;52.198;4.826;2023-04-30T00:01:31;54.20;52.61;55.62;;
66458;Laerm;56835;52.198;4.826;2023-04-30T00:01:41;54.24;52.47;55.59;;
66458;Laerm;56835;52.198;4.826;2023-04-30T00:01:51;54.21;52.51;55.43;;
66458;Laerm;56835;52.198;4.826;2023-04-30T00:02:02;54.15;52.64;55.57;;
66458;Laerm;56835;52.198;4.826;2023-04-30T00:02:12;54.29;52.56;55.63;;
66458;Laerm;56835;52.198;4.826;2023-04-30T00:02:22;54.25;52.36;55.57;;
66458;Laerm;56835;52.198;4.826;2023-04-30T00:02:33;54.26;52.62;55.95;;
66458;Laerm;56835;52.198;4.826;2023-04-30T00:02:43;54.17;52.15;55.66;;
66458;Laerm;56835;52.198;4.826;2023-04-30T00:02:53;54.23;52.62;55.88;;
66458;Laerm;56835;52.198;4.826;2023-04-30T00:03:04;54.24;53.01;55.81;;
66458;Laerm;56835;52.198;4.826;2023-04-30T00:03:14;54.25;52.61;55.75;;
66458;Laerm;56835;52.198;4.826;2023-04-30T00:03:25;54.23;52.46;55.65;;
66458;Laerm;56835;52.198;4.826;2023-04-30T00:03:35;54.20;52.49;55.55;;
66458;Laerm;56835;52.198;4.826;2023-04-30T00:03:45;54.24;52.33;55.95;;
66458;Laerm;56835;52.198;4.826;2023-04-30T00:03:55;54.26;52.57;55.48;;
66458;Laerm;56835;52.198;4.826;2023-04-30T00:04:06;54.21;52.32;55.70;;
66458;Laerm;56835;52.198;4.826;2023-04-30T00:04:17;54.19;52.51;55.83;;
66458;Laerm;56835;52.198;4.826;2023-04-30T00:04:27;54.30;52.51;55.80;;
66458;Laerm;56835;52.198;4.826;2023-04-30T00:04:37;54.26;52.66;55.59;;
66458;Laerm;56835;52.198;4.826;2023-04-30T00:04:47;54.26;52.63;56.18;;
66458;Laerm;56835;52.198;4.826;2023-04-30T00:04:58;54.23;52.75;55.73;;
66458;Laerm;56835;52.198;4.826;2023-04-30T00:05:08;54.22;52.48;55.57;;
66458;Laerm;56835;52.198;4.826;2023-04-30T00:05:18;54.23;52.22;55.51;;
66458;Laerm;56835;52.198;4.826;2023-04-30T00:05:29;54.22;52.34;55.79;;
66458;Laerm;56835;52.198;4.826;2023-04-30T00:05:39;54.25;52.20;55.82;;
66458;Laerm;56835;52.198;4.826;2023-04-30T00:05:49;54.24;51.60;55.53;;
66458;Laerm;56835;52.198;4.826;2023-04-30T00:06:00;54.31;52.27;55.73;;
66458;Laerm;56835;52.198;4.826;2023-04-30T00:06:11;54.36;52.88;55.95;;
66458;Laerm;56835;52.198;4.826;2023-04-30T00:06:21;54.22;52.47;55.59;;
66458;Laerm;56835;52.198;4.826;2023-04-30T00:06:31;54.22;51.92;55.56;;
66458;Laerm;56835;52.198;4.826;2023-04-30T00:06:42;54.17;52.30;55.79;;
66458;Laerm;56835;52.198;4.826;2023-04-30T00:06:52;54.24;52.32;55.77;;
66458;Laerm;56835;52.198;4.826;2023-04-30T00:07:02;54.22;52.08;55.64;;
66458;Laerm;56835;52.198;4.826;2023-04-30T00:07:13;54.19;52.05;55.86;;
66458;Laerm;56835;52.198;4.826;2023-04-30T00:07:23;54.21;52.84;55.82;;
66458;Laerm;56835;52.198;4.826;2023-04-30T00:07:33;54.21;52.05;55.82;;
66458;Laerm;56835;52.198;4.826;2023-04-30T00:07:43;54.16;52.29;55.98;;
66458;Laerm;56835;52.198;4.826;2023-04-30T00:07:54;54.19;51.85;55.52;;
66458;Laerm;56835;52.198;4.826;2023-04-30T00:08:04;54.22;52.75;55.45;;
66458;Laerm;56835;52.198;4.826;2023-04-30T00:08:14;54.20;52.53;55.59;;
66458;Laerm;56835;52.198;4.826;2023-04-30T00:08:25;54.24;52.27;55.68;;
66458;Laerm;56835;52.198;4.826;2023-04-30T00:08:36;54.20;52.39;55.71;;
66458;Laerm;56835;52.198;4.826;2023-04-30T00:08:46;54.34;52.66;55.51;;
66458;Laerm;56835;52.198;4.826;2023-04-30T00:08:56;54.36;52.48;55.68;;
66458;Laerm;56835;52.198;4.826;2023-04-30T00:09:06;54.34;51.85;55.98;;
66458;Laerm;56835;52.198;4.826;2023-04-30T00:09:17;54.34;52.50;56.14;;
66458;Laerm;56835;52.198;4.826;2023-04-30T00:09:27;54.32;52.90;55.81;;
66458;Laerm;56835;52.198;4.826;2023-04-30T00:09:37;54.20;52.26;55.77;;
66458;Laerm;56835;52.198;4.826;2023-04-30T00:09:48;54.33;52.60;55.77;;
66458;Laerm;56835;52.198;4.826;2023-04-30T00:10:00;54.24;51.90;55.78;;
66458;Laerm;56835;52.198;4.826;2023-04-30T00:10:10;54.37;52.60;55.67;;
66458;Laerm;56835;52.198;4.826;2023-04-30T00:10:20;54.41;52.45;55.82;;
66458;Laerm;56835;52.198;4.826;2023-04-30T00:10:31;54.33;52.85;55.53;;
66458;Laerm;56835;52.198;4.826;2023-04-30T00:10:41;54.32;52.57;55.58;;
66458;Laerm;56835;52.198;4.826;2023-04-30T00:10:51;54.44;52.84;55.76;;
66458;Laerm;56835;52.198;4.826;2023-04-30T00:11:02;54.45;52.55;56.20;;
66458;Laerm;56835;52.198;4.826;2023-04-30T00:11:12;54.44;52.69;56.04;;
66458;Laerm;56835;52.198;4.826;2023-04-30T00:11:22;54.43;52.88;55.59;;
66458;Laerm;56835;52.198;4.826;2023-04-30T00:11:34;54.36;51.88;55.67;;
66458;Laerm;56835;52.198;4.826;2023-04-30T00:11:44;54.30;52.87;55.85;;
66458;Laerm;56835;52.198;4.826;2023-04-30T00:11:55;54.34;52.58;55.75;;
66458;Laerm;56835;52.198;4.826;2023-04-30T00:12:05;54.29;52.32;55.55;;
66458;Laerm;56835;52.198;4.826;2023-04-30T00:12:15;54.36;52.72;56.03;;
66458;Laerm;56835;52.198;4.826;2023-04-30T00:12:26;54.30;52.31;55.98;;
66458;Laerm;56835;52.198;4.826;2023-04-30T00:12:36;54.39;52.31;55.61;;
66458;Laerm;56835;52.198;4.826;2023-04-30T00:12:46;54.43;52.74;55.98;;
66458;Laerm;56835;52.198;4.826;2023-04-30T00:12:57;54.32;52.64;55.95;;
66458;Laerm;56835;52.198;4.826;2023-04-30T00:13:07;54.35;52.36;55.84;;
66458;Laerm;56835;52.198;4.826;2023-04-30T00:13:19;54.33;52.43;56.10;;
66458;Laerm;56835;52.198;4.826;2023-04-30T00:13:29;54.35;52.26;55.78;;
66458;Laerm;56835;52.198;4.826;2023-04-30T00:13:39;54.36;52.60;55.45;;
66458;Laerm;56835;52.198;4.826;2023-04-30T00:13:51;54.35;52.20;55.86;;
66458;Laerm;56835;52.198;4.826;2023-04-30T00:14:02;54.35;52.71;55.67;;
66458;Laerm;56835;52.198;4.826;2023-04-30T00:14:12;54.34;52.44;56.13;;
66458;Laerm;56835;52.198;4.826;2023-04-30T00:14:22;54.37;52.73;55.62;;
66458;Laerm;56835;52.198;4.826;2023-04-30T00:14:33;54.43;52.25;55.58;;
66458;Laerm;56835;52.198;4.826;2023-04-30T00:14:43;54.41;52.70;55.87;;
66458;Laerm;56835;52.198;4.826;2023-04-30T00:14:53;54.45;52.81;55.83;;
66458;Laerm;56835;52.198;4.826;2023-04-30T00:15:05;54.39;52.38;56.25;;
66458;Laerm;56835;52.198;4.826;2023-04-30T00:15:16;54.20;52.25;55.74;;
66458;Laerm;56835;52.198;4.826;2023-04-30T00:15:26;54.42;52.68;55.80;;
66458;Laerm;56835;52.198;4.826;2023-04-30T00:15:36;54.45;52.49;56.01;;
66458;Laerm;56835;52.198;4.826;2023-04-30T00:15:46;54.38;52.29;55.63;;
66458;Laerm;56835;52.198;4.826;2023-04-30T00:15:57;54.34;52.29;55.84;;
66458;Laerm;56835;52.198;4.826;2023-04-30T00:16:07;54.36;52.49;55.68;;
66458;Laerm;56835;52.198;4.826;2023-04-30T00:16:17;54.39;52.27;55.59;;
66458;Laerm;56835;52.198;4.826;2023-04-30T00:16:27;54.41;53.10;55.79;;
66458;Laerm;56835;52.198;4.826;2023-04-30T00:16:38;54.39;52.30;55.74;;
66458;Laerm;56835;52.198;4.826;2023-04-30T00:16:48;54.34;52.79;55.78;;
66458;Laerm;56835;52.198;4.826;2023-04-30T00:16:58;54.41;52.74;55.97;;
66458;Laerm;56835;52.198;4.826;2023-04-30T00:17:09;54.35;52.07;55.73;;
66458;Laerm;56835;52.198;4.826;2023-04-30T00:17:19;54.36;52.61;55.85;;
66458;Laerm;56835;52.198;4.826;2023-04-30T00:17:29;54.38;52.31;55.74;;
66458;Laerm;56835;52.198;4.826;2023-04-30T00:17:40;54.34;52.04;55.76;;
66458;Laerm;56835;52.198;4.826;2023-04-30T00:17:50;54.28;52.55;55.67;;
66458;Laerm;56835;52.198;4.826;2023-04-30T00:18:02;54.34;52.48;56.13;;
66458;Laerm;56835;52.198;4.826;2023-04-30T00:18:12;54.41;52.21;55.89;;
66458;Laerm;56835;52.198;4.826;2023-04-30T00:18:22;54.39;52.43;55.88;;
66458;Laerm;56835;52.198;4.826;2023-04-30T00:18:33;54.38;52.58;56.21;;
66458;Laerm;56835;52.198;4.826;2023-04-30T00:18:43;54.33;52.42;55.63;;
66458;Laerm;56835;52.198;4.826;2023-04-30T00:18:53;54.40;52.26;56.11;;
66458;Laerm;56835;52.198;4.826;2023-04-30T00:19:03;54.43;52.28;55.88;;
66458;Laerm;56835;52.198;4.826;2023-04-30T00:19:14;54.47;52.82;56.06;;
66458;Laerm;56835;52.198;4.826;2023-04-30T00:19:24;54.47;52.66;55.97;;
66458;Laerm;56835;52.198;4.826;2023-04-30T00:19:34;54.31;52.31;55.88;;
66458;Laerm;56835;52.198;4.826;2023-04-30T00:19:45;54.37;52.37;55.80;;
66458;Laerm;56835;52.198;4.826;2023-04-30T00:19:55;54.42;52.58;56.23;;
66458;Laerm;56835;52.198;4.826;2023-04-30T00:20:05;54.40;52.84;55.82;;
66458;Laerm;56835;52.198;4.826;2023-04-30T00:20:16;54.44;52.21;55.86;;
66458;Laerm;56835;52.198;4.826;2023-04-30T00:20:26;54.37;52.44;56.04;;
66458;Laerm;56835;52.198;4.826;2023-04-30T00:20:37;54.37;52.69;56.05;;
66458;Laerm;56835;52.198;4.826;2023-04-30T00:20:47;54.44;52.65;55.98;;
66458;Laerm;56835;52.198;4.826;2023-04-30T00:20:57;54.37;52.37;55.88;;
66458;Laerm;56835;52.198;4.826;2023-04-30T00:21:08;54.44;52.60;55.95;;
66458;Laerm;56835;52.198;4.826;2023-04-30T00:21:18;54.43;52.55;55.76;;
66458;Laerm;56835;52.198;4.826;2023-04-30T00:21:28;54.40;51.98;55.86;;
66458;Laerm;56835;52.198;4.826;2023-04-30T00:21:38;54.38;52.48;55.83;;
66458;Laerm;56835;52.198;4.826;2023-04-30T00:21:49;54.43;52.49;55.77;;
66458;Laerm;56835;52.198;4.826;2023-04-30T00:21:59;54.42;52.78;55.57;;
66458;Laerm;56835;52.198;4.826;2023-04-30T00:22:10;54.42;52.84;55.75;;
66458;Laerm;56835;52.198;4.826;2023-04-30T00:22:20;54.44;52.97;55.77;;
66458;Laerm;56835;52.198;4.826;2023-04-30T00:22:31;54.45;52.72;55.92;;
66458;Laerm;56835;52.198;4.826;2023-04-30T00:22:42;54.39;52.41;55.77;;
66458;Laerm;56835;52.198;4.826;2023-04-30T00:22:52;54.41;52.23;55.77;;
66458;Laerm;56835;52.198;4.826;2023-04-30T00:23:03;54.48;52.30;56.26;;
66458;Laerm;56835;52.198;4.826;2023-04-30T00:23:13;54.39;52.85;55.70;;
66458;Laerm;56835;52.198;4.826;2023-04-30T00:23:23;54.45;52.84;56.25;;
66458;Laerm;56835;52.198;4.826;2023-04-30T00:23:33;54.42;52.75;56.12;;
66458;Laerm;56835;52.198;4.826;2023-04-30T00:23:44;54.46;53.00;55.82;;
66458;Laerm;56835;52.198;4.826;2023-04-30T00:23:54;54.48;52.75;56.30;;
66458;Laerm;56835;52.198;4.826;2023-04-30T00:24:05;54.48;52.57;55.67;;
66458;Laerm;56835;52.198;4.826;2023-04-30T00:24:15;54.39;52.44;55.93;;
66458;Laerm;56835;52.198;4.826;2023-04-30T00:24:26;54.52;52.07;55.88;;
66458;Laerm;56835;52.198;4.826;2023-04-30T00:24:36;54.55;52.97;56.04;;
66458;Laerm;56835;52.198;4.826;2023-04-30T00:24:46;54.46;52.58;55.87;;
66458;Laerm;56835;52.198;4.826;2023-04-30T00:24:57;54.50;52.79;55.90;;
66458;Laerm;56835;52.198;4.826;2023-04-30T00:25:07;54.34;52.24;55.83;;
66458;Laerm;56835;52.198;4.826;2023-04-30T00:25:18;54.42;52.42;55.71;;
66458;Laerm;56835;52.198;4.826;2023-04-30T00:25:30;54.41;52.70;55.75;;
66458;Laerm;56835;52.198;4.826;2023-04-30T00:25:40;54.38;52.48;55.68;;
66458;Laerm;56835;52.198;4.826;2023-04-30T00:25:50;54.45;52.72;56.01;;
66458;Laerm;56835;52.198;4.826;2023-04-30T00:26:00;54.44;52.78;55.98;;
66458;Laerm;56835;52.198;4.826;2023-04-30T00:26:11;54.55;52.74;56.04;;
66458;Laerm;56835;52.198;4.826;2023-04-30T00:26:21;54.50;52.30;56.10;;
66458;Laerm;56835;52.198;4.826;2023-04-30T00:26:31;54.48;52.54;55.71;;
66458;Laerm;56835;52.198;4.826;2023-04-30T00:26:41;54.43;52.74;56.25;;
66458;Laerm;56835;52.198;4.826;2023-04-30T00:26:52;54.43;52.03;55.88;;
66458;Laerm;56835;52.198;4.826;2023-04-30T00:27:03;54.49;52.69;55.79;;
66458;Laerm;56835;52.198;4.826;2023-04-30T00:27:13;54.46;52.65;55.86;;
66458;Laerm;56835;52.198;4.826;2023-04-30T00:27:24;54.33;52.46;55.77;;
66458;Laerm;56835;52.198;4.826;2023-04-30T00:27:34;54.43;52.58;55.94;;
66458;Laerm;56835;52.198;4.826;2023-04-30T00:27:44;54.48;52.49;56.31;;
66458;Laerm;56835;52.198;4.826;2023-04-30T00:27:55;54.45;52.89;56.15;;
66458;Laerm;56835;52.198;4.826;2023-04-30T00:28:05;54.44;52.45;55.85;;
66458;Laerm;56835;52.198;4.826;2023-04-30T00:28:15;54.51;52.98;56.20;;
66458;Laerm;56835;52.198;4.826;2023-04-30T00:28:26;54.50;52.68;55.98;;
66458;Laerm;56835;52.198;4.826;2023-04-30T00:28:36;54.43;52.83;55.99;;
66458;Laerm;56835;52.198;4.826;2023-04-30T00:28:46;54.47;52.71;55.85;;
66458;Laerm;56835;52.198;4.826;2023-04-30T00:28:57;54.47;52.03;56.12;;
66458;Laerm;56835;52.198;4.826;2023-04-30T00:29:07;54.42;52.60;55.85;;
66458;Laerm;56835;52.198;4.826;2023-04-30T00:29:17;54.45;52.55;55.74;;
66458;Laerm;56835;52.198;4.826;2023-04-30T00:29:28;54.51;52.07;55.80;;
66458;Laerm;56835;52.198;4.826;2023-04-30T00:29:38;54.46;52.64;55.92;;
66458;Laerm;56835;52.198;4.826;2023-04-30T00:29:48;54.45;52.43;55.82;;
66458;Laerm;56835;52.198;4.826;2023-04-30T00:29:58;54.50;52.54;55.95;;
66458;Laerm;56835;52.198;4.826;2023-04-30T00:30:09;54.53;52.64;56.44;;
66458;Laerm;56835;52.198;4.826;2023-04-30T00:30:19;54.39;52.68;55.62;;
66458;Laerm;56835;52.198;4.826;2023-04-30T00:30:30;54.47;52.60;55.93;;
66458;Laerm;56835;52.198;4.826;2023-04-30T00:30:41;54.41;52.59;56.26;;
66458;Laerm;56835;52.198;4.826;2023-04-30T00:30:51;54.43;52.86;55.55;;
66458;Laerm;56835;52.198;4.826;2023-04-30T00:31:01;54.54;52.57;56.41;;
66458;Laerm;56835;52.198;4.826;2023-04-30T00:31:12;54.57;52.58;56.07;;
66458;Laerm;56835;52.198;4.826;2023-04-30T00:31:22;54.61;52.98;55.99;;
66458;Laerm;56835;52.198;4.826;2023-04-30T00:31:32;54.60;52.85;56.25;;
66458;Laerm;56835;52.198;4.826;2023-04-30T00:31:43;54.49;52.50;56.01;;
66458;Laerm;56835;52.198;4.826;2023-04-30T00:31:53;54.47;52.55;55.80;;
66458;Laerm;56835;52.198;4.826;2023-04-30T00:32:03;54.47;52.66;55.74;;
66458;Laerm;56835;52.198;4.826;2023-04-30T00:32:14;54.51;52.04;56.44;;
66458;Laerm;56835;52.198;4.826;2023-04-30T00:32:24;54.51;52.83;55.97;;
66458;Laerm;56835;52.198;4.826;2023-04-30T00:32:34;54.49;52.73;56.31;;
66458;Laerm;56835;52.198;4.826;2023-04-30T00:32:45;54.51;52.38;56.35;;
66458;Laerm;56835;52.198;4.826;2023-04-30T00:32:55;54.50;52.06;56.09;;
66458;Laerm;56835;52.198;4.826;2023-04-30T00:33:05;54.57;52.82;56.13;;
66458;Laerm;56835;52.198;4.826;2023-04-30T00:33:15;54.51;52.51;55.87;;
66458;Laerm;56835;52.198;4.826;2023-04-30T00:33:26;54.49;52.78;55.90;;
66458;Laerm;56835;52.198;4.826;2023-04-30T00:33:36;54.51;52.46;55.88;;
66458;Laerm;56835;52.198;4.826;2023-04-30T00:33:46;54.51;52.43;55.76;;
66458;Laerm;56835;52.198;4.826;2023-04-30T00:33:57;54.50;53.09;55.90;;
66458;Laerm;56835;52.198;4.826;2023-04-30T00:34:07;54.53;52.43;56.47;;
66458;Laerm;56835;52.198;4.826;2023-04-30T00:34:17;54.52;52.64;55.98;;
66458;Laerm;56835;52.198;4.826;2023-04-30T00:34:27;54.46;52.42;56.09;;
66458;Laerm;56835;52.198;4.826;2023-04-30T00:34:38;54.46;52.56;56.03;;
66458;Laerm;56835;52.198;4.826;2023-04-30T00:34:48;54.50;52.85;56.05;;
66458;Laerm;56835;52.198;4.826;2023-04-30T00:34:58;54.54;52.73;55.97;;
66458;Laerm;56835;52.198;4.826;2023-04-30T00:35:09;54.48;51.94;56.17;;
66458;Laerm;56835;52.198;4.826;2023-04-30T00:35:19;54.54;52.71;56.21;;
66458;Laerm;56835;52.198;4.826;2023-04-30T00:35:29;54.51;52.72;55.84;;
66458;Laerm;56835;52.198;4.826;2023-04-30T00:35:40;54.43;52.49;55.84;;
66458;Laerm;56835;52.198;4.826;2023-04-30T00:35:50;54.55;52.98;56.12;;
66458;Laerm;56835;52.198;4.826;2023-04-30T00:36:01;54.49;52.73;55.90;;
66458;Laerm;56835;52.198;4.826;2023-04-30T00:36:11;54.50;52.55;55.90;;
66458;Laerm;56835;52.198;4.826;2023-04-30T00:36:22;54.46;52.07;55.94;;
66458;Laerm;56835;52.198;4.826;2023-04-30T00:36:32;54.52;52.81;56.05;;
66458;Laerm;56835;52.198;4.826;2023-04-30T00:36:42;54.45;52.71;55.79;;
66458;Laerm;56835;52.198;4.826;2023-04-30T00:36:52;54.49;52.92;56.19;;
66458;Laerm;56835;52.198;4.826;2023-04-30T00:37:03;54.53;53.07;55.65;;
66458;Laerm;56835;52.198;4.826;2023-04-30T00:37:13;54.55;52.39;56.19;;
66458;Laerm;56835;52.198;4.826;2023-04-30T00:37:23;54.58;52.17;55.84;;
66458;Laerm;56835;52.198;4.826;2023-04-30T00:37:33;54.50;52.15;55.86;;
66458;Laerm;56835;52.198;4.826;2023-04-30T00:37:44;54.46;52.74;55.81;;
66458;Laerm;56835;52.198;4.826;2023-04-30T00:37:54;54.48;52.62;55.72;;
66458;Laerm;56835;52.198;4.826;2023-04-30T00:38:04;54.50;52.59;56.07;;
66458;Laerm;56835;52.198;4.826;2023-04-30T00:38:15;54.50;52.14;55.94;;
66458;Laerm;56835;52.198;4.826;2023-04-30T00:38:25;54.55;52.74;55.93;;
66458;Laerm;56835;52.198;4.826;2023-04-30T00:38:36;54.53;52.17;56.12;;
66458;Laerm;56835;52.198;4.826;2023-04-30T00:38:46;54.55;52.55;55.97;;
66458;Laerm;56835;52.198;4.826;2023-04-30T00:38:56;54.57;52.41;56.19;;
66458;Laerm;56835;52.198;4.826;2023-04-30T00:39:07;54.59;52.67;55.83;;
66458;Laerm;56835;52.198;4.826;2023-04-30T00:39:17;54.58;52.91;56.18;;
66458;Laerm;56835;52.198;4.826;2023-04-30T00:39:27;54.52;52.28;55.94;;
66458;Laerm;56835;52.198;4.826;2023-04-30T00:39:37;54.49;52.69;55.88;;
66458;Laerm;56835;52.198;4.826;2023-04-30T00:39:48;54.41;52.89;55.81;;
66458;Laerm;56835;52.198;4.826;2023-04-30T00:39:58;54.55;52.92;55.76;;
66458;Laerm;56835;52.198;4.826;2023-04-30T00:40:08;54.52;52.32;56.28;;
66458;Laerm;56835;52.198;4.826;2023-04-30T00:40:19;54.57;53.14;55.86;;
66458;Laerm;56835;52.198;4.826;2023-04-30T00:40:29;54.67;52.68;56.10;;
66458;Laerm;56835;52.198;4.826;2023-04-30T00:40:40;54.48;52.23;55.89;;
66458;Laerm;56835;52.198;4.826;2023-04-30T00:40:53;54.54;52.75;56.22;;
66458;Laerm;56835;52.198;4.826;2023-04-30T00:41:03;54.45;52.77;55.95;;
66458;Laerm;56835;52.198;4.826;2023-04-30T00:41:14;54.51;52.61;55.97;;
66458;Laerm;56835;52.198;4.826;2023-04-30T00:41:25;54.48;52.89;56.08;;
66458;Laerm;56835;52.198;4.826;2023-04-30T00:41:36;54.54;52.96;56.24;;
66458;Laerm;56835;52.198;4.826;2023-04-30T00:41:47;54.57;53.00;55.98;;
66458;Laerm;56835;52.198;4.826;2023-04-30T00:41:57;54.53;52.62;56.20;;
66458;Laerm;56835;52.198;4.826;2023-04-30T00:42:08;54.59;52.73;55.90;;
66458;Laerm;56835;52.198;4.826;2023-04-30T00:42:18;54.58;53.16;56.02;;
66458;Laerm;56835;52.198;4.826;2023-04-30T00:42:28;54.48;52.14;56.05;;
66458;Laerm;56835;52.198;4.826;2023-04-30T00:42:38;54.46;52.70;55.89;;
66458;Laerm;56835;52.198;4.826;2023-04-30T00:42:49;54.54;52.93;56.00;;
66458;Laerm;56835;52.198;4.826;2023-04-30T00:43:01;54.59;52.53;55.99;;
66458;Laerm;56835;52.198;4.826;2023-04-30T00:43:11;54.63;52.35;55.85;;
66458;Laerm;56835;52.198;4.826;2023-04-30T00:43:21;54.56;53.05;56.06;;
66458;Laerm;56835;52.198;4.826;2023-04-30T00:43:32;54.58;53.06;55.93;;
66458;Laerm;56835;52.198;4.826;2023-04-30T00:43:43;54.54;52.78;56.20;;
66458;Laerm;56835;52.198;4.826;2023-04-30T00:43:55;54.59;52.69;56.15;;
66458;Laerm;56835;52.198;4.826;2023-04-30T00:44:06;54.50;52.52;55.73;;
66458;Laerm;56835;52.198;4.826;2023-04-30T00:44:16;54.53;53.01;56.06;;
66458;Laerm;56835;52.198;4.826;2023-04-30T00:44:26;54.52;51.88;55.97;;
66458;Laerm;56835;52.198;4.826;2023-04-30T00:44:37;54.49;52.67;56.50;;
66458;Laerm;56835;52.198;4.826;2023-04-30T00:44:47;54.60;52.79;56.03;;
66458;Laerm;56835;52.198;4.826;2023-04-30T00:44:57;54.53;52.78;56.00;;
66458;Laerm;56835;52.198;4.826;2023-04-30T00:45:07;54.50;52.62;55.72;;
66458;Laerm;56835;52.198;4.826;2023-04-30T00:45:18;54.47;51.96;55.74;;
66458;Laerm;56835;52.198;4.826;2023-04-30T00:45:31;54.51;52.45;55.99;;
66458;Laerm;56835;52.198;4.826;2023-04-30T00:45:41;54.63;52.66;56.27;;
66458;Laerm;56835;52.198;4.826;2023-04-30T00:45:51;54.61;53.05;56.25;;
66458;Laerm;56835;52.198;4.826;2023-04-30T00:46:01;54.60;52.90;56.36;;
66458;Laerm;56835;52.198;4.826;2023-04-30T00:46:14;54.52;52.21;56.15;;
66458;Laerm;56835;52.198;4.826;2023-04-30T00:46:24;54.42;52.68;55.80;;
66458;Laerm;56835;52.198;4.826;2023-04-30T00:46:34;54.50;52.69;55.91;;
66458;Laerm;56835;52.198;4.826;2023-04-30T00:46:45;54.53;53.07;56.01;;
66458;Laerm;56835;52.198;4.826;2023-04-30T00:46:55;54.47;52.53;55.92;;
66458;Laerm;56835;52.198;4.826;2023-04-30T00:47:05;54.52;52.80;55.96;;
66458;Laerm;56835;52.198;4.826;2023-04-30T00:47:16;54.57;52.48;56.09;;
66458;Laerm;56835;52.198;4.826;2023-04-30T00:47:26;54.52;53.07;56.19;;
66458;Laerm;56835;52.198;4.826;2023-04-30T00:47:36;54.51;52.31;56.15;;
66458;Laerm;56835;52.198;4.826;2023-04-30T00:47:47;54.53;52.68;56.18;;
66458;Laerm;56835;52.198;4.826;2023-04-30T00:47:57;54.55;52.74;55.99;;
66458;Laerm;56835;52.198;4.826;2023-04-30T00:48:07;54.50;52.81;56.39;;
66458;Laerm;56835;52.198;4.826;2023-04-30T00:48:18;54.55;52.68;55.81;;
66458;Laerm;56835;52.198;4.826;2023-04-30T00:48:28;54.49;52.69;56.27;;
66458;Laerm;56835;52.198;4.826;2023-04-30T00:48:38;54.49;52.28;55.93;;
66458;Laerm;56835;52.198;4.826;2023-04-30T00:48:49;54.47;52.71;55.69;;
66458;Laerm;56835;52.198;4.826;2023-04-30T00:48:59;54.55;52.69;55.94;;
66458;Laerm;56835;52.198;4.826;2023-04-30T00:49:13;54.56;52.64;56.15;;
66458;Laerm;56835;52.198;4.826;2023-04-30T00:49:24;54.63;52.97;56.56;;
66458;Laerm;56835;52.198;4.826;2023-04-30T00:49:34;54.57;52.86;56.15;;
66458;Laerm;56835;52.198;4.826;2023-04-30T00:49:45;54.60;52.79;56.17;;
66458;Laerm;56835;52.198;4.826;2023-04-30T00:49:55;54.60;52.57;56.21;;
66458;Laerm;56835;52.198;4.826;2023-04-30T00:50:06;54.57;52.40;56.09;;
66458;Laerm;56835;52.198;4.826;2023-04-30T00:50:16;54.54;52.71;56.09;;
66458;Laerm;56835;52.198;4.826;2023-04-30T00:50:27;54.55;52.77;55.90;;
66458;Laerm;56835;52.198;4.826;2023-04-30T00:50:38;54.56;52.60;56.34;;
66458;Laerm;56835;52.198;4.826;2023-04-30T00:50:48;54.58;52.30;56.13;;
66458;Laerm;56835;52.198;4.826;2023-04-30T00:51:00;54.50;52.55;56.52;;
66458;Laerm;56835;52.198;4.826;2023-04-30T00:51:11;54.55;52.64;56.04;;
66458;Laerm;56835;52.198;4.826;2023-04-30T00:51:22;54.60;52.85;55.79;;
66458;Laerm;56835;52.198;4.826;2023-04-30T00:51:33;54.65;53.11;56.61;;
66458;Laerm;56835;52.198;4.826;2023-04-30T00:51:44;54.62;53.04;55.94;;
66458;Laerm;56835;52.198;4.826;2023-04-30T00:51:54;54.52;52.56;56.27;;
66458;Laerm;56835;52.198;4.826;2023-04-30T00:52:05;54.53;52.41;55.89;;
66458;Laerm;56835;52.198;4.826;2023-04-30T00:52:16;54.51;52.74;55.89;;
66458;Laerm;56835;52.198;4.826;2023-04-30T00:52:26;54.53;52.54;55.81;;
66458;Laerm;56835;52.198;4.826;2023-04-30T00:52:37;54.50;53.22;56.03;;
66458;Laerm;56835;52.198;4.826;2023-04-30T00:52:47;54.51;52.42;55.86;;
66458;Laerm;56835;52.198;4.826;2023-04-30T00:52:57;54.47;52.93;56.05;;
66458;Laerm;56835;52.198;4.826;2023-04-30T00:53:09;54.53;52.50;56.02;;
66458;Laerm;56835;52.198;4.826;2023-04-30T00:53:19;54.58;52.86;56.14;;
66458;Laerm;56835;52.198;4.826;2023-04-30T00:53:30;54.57;52.99;56.13;;
66458;Laerm;56835;52.198;4.826;2023-04-30T00:53:40;54.50;52.50;55.91;;
66458;Laerm;56835;52.198;4.826;2023-04-30T00:53:51;54.58;52.97;56.43;;
66458;Laerm;56835;52.198;4.826;2023-04-30T00:54:01;54.50;52.81;55.91;;
66458;Laerm;56835;52.198;4.826;2023-04-30T00:54:12;54.45;52.52;55.82;;
66458;Laerm;56835;52.198;4.826;2023-04-30T00:54:23;54.52;52.97;55.98;;
66458;Laerm;56835;52.198;4.826;2023-04-30T00:54:34;54.49;52.70;55.93;;
66458;Laerm;56835;52.198;4.826;2023-04-30T00:54:45;54.48;52.72;55.80;;
66458;Laerm;56835;52.198;4.826;2023-04-30T00:54:55;54.54;52.77;55.75;;
66458;Laerm;56835;52.198;4.826;2023-04-30T00:55:05;54.62;52.64;56.19;;
66458;Laerm;56835;52.198;4.826;2023-04-30T00:55:16;54.61;52.88;55.94;;
66458;Laerm;56835;52.198;4.826;2023-04-30T00:55:27;54.54;52.53;55.82;;
66458;Laerm;56835;52.198;4.826;2023-04-30T00:55:40;54.51;52.74;55.79;;
66458;Laerm;56835;52.198;4.826;2023-04-30T00:55:50;54.51;52.35;55.93;;
66458;Laerm;56835;52.198;4.826;2023-04-30T00:56:01;54.53;52.76;55.74;;
66458;Laerm;56835;52.198;4.826;2023-04-30T00:56:11;54.53;52.07;55.87;;
66458;Laerm;56835;52.198;4.826;2023-04-30T00:56:22;54.57;52.70;56.08;;
66458;Laerm;56835;52.198;4.826;2023-04-30T00:56:32;54.66;52.82;55.80;;
66458;Laerm;56835;52.198;4.826;2023-04-30T00:56:43;54.60;52.06;55.86;;
66458;Laerm;56835;52.198;4.826;2023-04-30T00:56:53;54.56;52.85;55.77;;
66458;Laerm;56835;52.198;4.826;2023-04-30T00:57:04;54.48;51.96;55.84;;
66458;Laerm;56835;52.198;4.826;2023-04-30T00:57:14;54.55;52.91;55.92;;
66458;Laerm;56835;52.198;4.826;2023-04-30T00:57:25;54.58;52.68;56.08;;
66458;Laerm;56835;52.198;4.826;2023-04-30T00:57:35;54.50;52.71;56.15;;
66458;Laerm;56835;52.198;4.826;2023-04-30T00:57:46;54.55;52.93;55.93;;
66458;Laerm;56835;52.198;4.826;2023-04-30T00:57:58;54.55;52.82;56.06;;
66458;Laerm;56835;52.198;4.826;2023-04-30T00:58:09;54.56;53.01;56.40;;
66458;Laerm;56835;52.198;4.826;2023-04-30T00:58:19;54.57;52.85;56.25;;
66458;Laerm;56835;52.198;4.826;2023-04-30T00:58:30;54.53;52.69;55.88;;
66458;Laerm;56835;52.198;4.826;2023-04-30T00:58:40;54.53;52.51;55.67;;